sensor_id;sensor_type;location;lat;lon;timestamp;pressure;altitude;pressure_sealevel;temperature;humidity
66381;BME280;53177;52.648;1.214;2023-04-21T00:00:55;101406.16;;;7.03;nan
66381;BME280;53177;52.648;1.214;2023-04-21T00:03:21;101410.53;;;7.02;nan
66381;BME280;53177;52.648;1.214;2023-04-21T00:05:48;101397.41;;;7.04;nan
66381;BME280;53177;52.648;1.214;2023-04-21T00:08:15;101396.53;;;7.05;nan
66381;BME280;53177;52.648;1.214;2023-04-21T00:10:41;101394.78;;;7.08;nan
66381;BME280;53177;52.648;1.214;2023-04-21T00:13:08;101386.00;;;7.08;nan
66381;BME280;53177;52.648;1.214;2023-04-21T00:15:33;101381.63;;;7.11;nan
66381;BME280;53177;52.648;1.214;2023-04-21T00:17:59;101379.03;;;7.13;nan
66381;BME280;53177;52.648;1.214;2023-04-21T00:20:25;101376.38;;;7.17;nan
66381;BME280;53177;52.648;1.214;2023-04-21T00:22:52;101374.63;;;7.18;nan
66381;BME280;53177;52.648;1.214;2023-04-21T00:25:18;101367.63;;;7.21;nan
66381;BME280;53177;52.648;1.214;2023-04-21T00:27:43;101366.78;;;7.24;nan
66381;BME280;53177;52.648;1.214;2023-04-21T00:30:09;101362.38;;;7.29;nan
66381;BME280;53177;52.648;1.214;2023-04-21T00:32:34;101358.00;;;7.29;nan
66381;BME280;53177;52.648;1.214;2023-04-21T00:35:00;101342.19;;;7.28;nan
66381;BME280;53177;52.648;1.214;2023-04-21T00:37:25;101339.59;;;7.31;nan
66381;BME280;53177;52.648;1.214;2023-04-21T00:39:51;101342.22;;;7.31;nan
66381;BME280;53177;52.648;1.214;2023-04-21T00:42:16;101341.34;;;7.30;nan
66381;BME280;53177;52.648;1.214;2023-04-21T00:44:42;101334.31;;;7.29;nan
66381;BME280;53177;52.648;1.214;2023-04-21T00:47:07;101337.81;;;7.30;nan
66381;BME280;53177;52.648;1.214;2023-04-21T00:49:32;101334.31;;;7.32;nan
66381;BME280;53177;52.648;1.214;2023-04-21T00:51:58;101328.19;;;7.33;nan
66381;BME280;53177;52.648;1.214;2023-04-21T00:54:25;101327.31;;;7.33;nan
66381;BME280;53177;52.648;1.214;2023-04-21T00:56:51;101321.16;;;7.35;nan
66381;BME280;53177;52.648;1.214;2023-04-21T00:59:16;101324.69;;;7.34;nan
66381;BME280;53177;52.648;1.214;2023-04-21T01:01:42;101310.63;;;7.35;nan
66381;BME280;53177;52.648;1.214;2023-04-21T01:04:07;101307.13;;;7.37;nan
66381;BME280;53177;52.648;1.214;2023-04-21T01:06:34;101297.47;;;7.35;nan
66381;BME280;53177;52.648;1.214;2023-04-21T01:09:00;101295.75;;;7.38;nan
66381;BME280;53177;52.648;1.214;2023-04-21T01:11:27;101293.09;;;7.39;nan
66381;BME280;53177;52.648;1.214;2023-04-21T01:13:53;101295.72;;;7.41;nan
66381;BME280;53177;52.648;1.214;2023-04-21T01:16:19;101289.59;;;7.42;nan
66381;BME280;53177;52.648;1.214;2023-04-21T01:18:45;101281.69;;;7.43;nan
66381;BME280;53177;52.648;1.214;2023-04-21T01:21:11;101291.34;;;7.47;nan
66381;BME280;53177;52.648;1.214;2023-04-21T01:23:38;101290.47;;;7.45;nan
66381;BME280;53177;52.648;1.214;2023-04-21T01:26:04;101294.88;;;7.46;nan
66381;BME280;53177;52.648;1.214;2023-04-21T01:28:30;101286.97;;;7.46;nan
66381;BME280;53177;52.648;1.214;2023-04-21T01:30:56;101290.47;;;7.44;nan
66381;BME280;53177;52.648;1.214;2023-04-21T01:33:22;101284.31;;;7.45;nan
66381;BME280;53177;52.648;1.214;2023-04-21T01:35:47;101273.78;;;7.43;nan
66381;BME280;53177;52.648;1.214;2023-04-21T01:38:13;101272.06;;;7.41;nan
66381;BME280;53177;52.648;1.214;2023-04-21T01:40:47;101268.56;;;7.39;nan
66381;BME280;53177;52.648;1.214;2023-04-21T01:43:13;101265.03;;;7.37;nan
66381;BME280;53177;52.648;1.214;2023-04-21T01:45:39;101263.28;;;7.32;nan
66381;BME280;53177;52.648;1.214;2023-04-21T01:48:04;101263.28;;;7.34;nan
66381;BME280;53177;52.648;1.214;2023-04-21T01:50:30;101259.78;;;7.32;nan
66381;BME280;53177;52.648;1.214;2023-04-21T01:52:55;101258.91;;;7.34;nan
66381;BME280;53177;52.648;1.214;2023-04-21T01:55:21;101256.28;;;7.31;nan
66381;BME280;53177;52.648;1.214;2023-04-21T01:57:46;101254.53;;;7.33;nan
66381;BME280;53177;52.648;1.214;2023-04-21T02:00:13;101238.75;;;7.33;nan
66381;BME280;53177;52.648;1.214;2023-04-21T02:02:38;101231.72;;;7.29;nan
66381;BME280;53177;52.648;1.214;2023-04-21T02:05:04;101230.84;;;7.29;nan
66381;BME280;53177;52.648;1.214;2023-04-21T02:07:30;101220.31;;;7.29;nan
66381;BME280;53177;52.648;1.214;2023-04-21T02:09:55;101214.19;;;7.25;nan
66381;BME280;53177;52.648;1.214;2023-04-21T02:12:20;101208.94;;;7.25;nan
66381;BME280;53177;52.648;1.214;2023-04-21T02:14:46;101215.06;;;7.27;nan
66381;BME280;53177;52.648;1.214;2023-04-21T02:17:12;101196.66;;;7.24;nan
66381;BME280;53177;52.648;1.214;2023-04-21T02:19:38;101189.66;;;7.23;nan
66381;BME280;53177;52.648;1.214;2023-04-21T02:22:03;101178.22;;;7.24;nan
66381;BME280;53177;52.648;1.214;2023-04-21T02:24:30;101169.50;;;7.24;nan
66381;BME280;53177;52.648;1.214;2023-04-21T02:26:56;101164.22;;;7.22;nan
66381;BME280;53177;52.648;1.214;2023-04-21T02:29:22;101165.09;;;7.24;nan
66381;BME280;53177;52.648;1.214;2023-04-21T02:31:48;101156.34;;;7.24;nan
66381;BME280;53177;52.648;1.214;2023-04-21T02:34:13;101159.81;;;7.24;nan
66381;BME280;53177;52.648;1.214;2023-04-21T02:36:38;101161.59;;;7.24;nan
66381;BME280;53177;52.648;1.214;2023-04-21T02:39:04;101164.22;;;7.24;nan
66381;BME280;53177;52.648;1.214;2023-04-21T02:41:30;101155.44;;;7.25;nan
66381;BME280;53177;52.648;1.214;2023-04-21T02:43:55;101154.56;;;7.24;nan
66381;BME280;53177;52.648;1.214;2023-04-21T02:46:20;101149.31;;;7.26;nan
66381;BME280;53177;52.648;1.214;2023-04-21T02:48:46;101143.16;;;7.28;nan
66381;BME280;53177;52.648;1.214;2023-04-21T02:51:12;101135.25;;;7.28;nan
66381;BME280;53177;52.648;1.214;2023-04-21T02:53:38;101128.25;;;7.26;nan
66381;BME280;53177;52.648;1.214;2023-04-21T02:56:03;101122.13;;;7.30;nan
66381;BME280;53177;52.648;1.214;2023-04-21T02:58:29;101117.72;;;7.29;nan
66381;BME280;53177;52.648;1.214;2023-04-21T03:00:55;101104.56;;;7.29;nan
66381;BME280;53177;52.648;1.214;2023-04-21T03:03:20;101106.34;;;7.27;nan
66381;BME280;53177;52.648;1.214;2023-04-21T03:05:46;101108.09;;;7.26;nan
66381;BME280;53177;52.648;1.214;2023-04-21T03:08:11;101094.94;;;7.26;nan
66381;BME280;53177;52.648;1.214;2023-04-21T03:10:37;101095.84;;;7.24;nan
66381;BME280;53177;52.648;1.214;2023-04-21T03:13:03;101094.97;;;7.23;nan
66381;BME280;53177;52.648;1.214;2023-04-21T03:15:28;101086.19;;;7.27;nan
66381;BME280;53177;52.648;1.214;2023-04-21T03:17:53;101084.41;;;7.29;nan
66381;BME280;53177;52.648;1.214;2023-04-21T03:20:20;101087.94;;;7.30;nan
66381;BME280;53177;52.648;1.214;2023-04-21T03:22:46;101087.94;;;7.31;nan
66381;BME280;53177;52.648;1.214;2023-04-21T03:25:11;101092.31;;;7.31;nan
66381;BME280;53177;52.648;1.214;2023-04-21T03:27:37;101087.94;;;7.31;nan
66381;BME280;53177;52.648;1.214;2023-04-21T03:30:06;101087.03;;;7.28;nan
66381;BME280;53177;52.648;1.214;2023-04-21T03:32:31;101080.03;;;7.30;nan
66381;BME280;53177;52.648;1.214;2023-04-21T03:34:57;101075.66;;;7.30;nan
66381;BME280;53177;52.648;1.214;2023-04-21T03:37:22;101067.75;;;7.29;nan
66381;BME280;53177;52.648;1.214;2023-04-21T03:39:47;101067.78;;;7.27;nan
66381;BME280;53177;52.648;1.214;2023-04-21T03:42:13;101062.50;;;7.27;nan
66381;BME280;53177;52.648;1.214;2023-04-21T03:44:38;101065.13;;;7.29;nan
66381;BME280;53177;52.648;1.214;2023-04-21T03:47:04;101056.38;;;7.27;nan
66381;BME280;53177;52.648;1.214;2023-04-21T03:49:29;101059.00;;;7.27;nan
66381;BME280;53177;52.648;1.214;2023-04-21T03:51:55;101055.50;;;7.23;nan
66381;BME280;53177;52.648;1.214;2023-04-21T03:54:20;101043.22;;;7.21;nan
66381;BME280;53177;52.648;1.214;2023-04-21T03:56:45;101042.34;;;7.25;nan
66381;BME280;53177;52.648;1.214;2023-04-21T03:59:11;101032.69;;;7.27;nan
66381;BME280;53177;52.648;1.214;2023-04-21T04:01:36;101030.06;;;7.27;nan
66381;BME280;53177;52.648;1.214;2023-04-21T04:04:01;101028.31;;;7.24;nan
66381;BME280;53177;52.648;1.214;2023-04-21T04:06:27;101024.81;;;7.27;nan
66381;BME280;53177;52.648;1.214;2023-04-21T04:08:52;101021.28;;;7.29;nan
66381;BME280;53177;52.648;1.214;2023-04-21T04:11:18;101030.91;;;7.33;nan
66381;BME280;53177;52.648;1.214;2023-04-21T04:13:52;101027.44;;;7.30;nan
66381;BME280;53177;52.648;1.214;2023-04-21T04:16:23;101023.91;;;7.31;nan
66381;BME280;53177;52.648;1.214;2023-04-21T04:18:50;101030.06;;;7.27;nan
66381;BME280;53177;52.648;1.214;2023-04-21T04:21:18;101029.19;;;7.26;nan
66381;BME280;53177;52.648;1.214;2023-04-21T04:23:48;101027.47;;;7.19;nan
66381;BME280;53177;52.648;1.214;2023-04-21T04:26:18;101022.19;;;7.22;nan
66381;BME280;53177;52.648;1.214;2023-04-21T04:28:51;101018.66;;;7.29;nan
66381;BME280;53177;52.648;1.214;2023-04-21T04:31:19;101021.28;;;7.28;nan
66381;BME280;53177;52.648;1.214;2023-04-21T04:33:48;101020.41;;;7.26;nan
66381;BME280;53177;52.648;1.214;2023-04-21T04:36:17;101016.94;;;7.21;nan
66381;BME280;53177;52.648;1.214;2023-04-21T04:38:44;101011.72;;;7.16;nan
66381;BME280;53177;52.648;1.214;2023-04-21T04:41:10;101006.41;;;7.21;nan
66381;BME280;53177;52.648;1.214;2023-04-21T04:43:39;100993.31;;;7.16;nan
66381;BME280;53177;52.648;1.214;2023-04-21T04:46:05;100995.06;;;7.11;nan
66381;BME280;53177;52.648;1.214;2023-04-21T04:48:33;100996.84;;;7.05;nan
66381;BME280;53177;52.648;1.214;2023-04-21T04:50:58;100982.88;;;6.98;nan
66381;BME280;53177;52.648;1.214;2023-04-21T04:53:23;100982.88;;;6.94;nan
66381;BME280;53177;52.648;1.214;2023-04-21T04:55:50;100979.38;;;6.89;nan
66381;BME280;53177;52.648;1.214;2023-04-21T04:58:15;100993.38;;;6.88;nan
66381;BME280;53177;52.648;1.214;2023-04-21T05:00:40;100989.00;;;6.91;nan
66381;BME280;53177;52.648;1.214;2023-04-21T05:03:06;100982.88;;;6.89;nan
66381;BME280;53177;52.648;1.214;2023-04-21T05:05:31;100988.16;;;6.86;nan
66381;BME280;53177;52.648;1.214;2023-04-21T05:07:57;100982.03;;;6.82;nan
66381;BME280;53177;52.648;1.214;2023-04-21T05:10:24;100984.63;;;6.84;nan
66381;BME280;53177;52.648;1.214;2023-04-21T05:12:49;100974.13;;;6.89;nan
66381;BME280;53177;52.648;1.214;2023-04-21T05:15:16;100968.88;;;6.85;nan
66381;BME280;53177;52.648;1.214;2023-04-21T05:17:42;100974.13;;;6.89;nan
66381;BME280;53177;52.648;1.214;2023-04-21T05:20:07;100965.34;;;6.91;nan
66381;BME280;53177;52.648;1.214;2023-04-21T05:22:37;100965.34;;;6.90;nan
66381;BME280;53177;52.648;1.214;2023-04-21T05:25:03;100967.97;;;6.91;nan
66381;BME280;53177;52.648;1.214;2023-04-21T05:27:29;100966.22;;;6.93;nan
66381;BME280;53177;52.648;1.214;2023-04-21T05:29:54;100965.34;;;6.91;nan
66381;BME280;53177;52.648;1.214;2023-04-21T05:32:20;100965.34;;;6.90;nan
66381;BME280;53177;52.648;1.214;2023-04-21T05:34:45;100965.34;;;6.93;nan
66381;BME280;53177;52.648;1.214;2023-04-21T05:37:11;100967.97;;;6.93;nan
66381;BME280;53177;52.648;1.214;2023-04-21T05:39:36;100968.84;;;6.92;nan
66381;BME280;53177;52.648;1.214;2023-04-21T05:42:02;100954.81;;;6.96;nan
66381;BME280;53177;52.648;1.214;2023-04-21T05:44:28;100950.44;;;6.92;nan
66381;BME280;53177;52.648;1.214;2023-04-21T05:46:53;100935.53;;;6.92;nan
66381;BME280;53177;52.648;1.214;2023-04-21T05:49:19;100923.28;;;6.88;nan
66381;BME280;53177;52.648;1.214;2023-04-21T05:51:44;100925.06;;;6.89;nan
66381;BME280;53177;52.648;1.214;2023-04-21T05:54:09;100918.03;;;6.90;nan
66381;BME280;53177;52.648;1.214;2023-04-21T05:56:35;100919.81;;;6.91;nan
66381;BME280;53177;52.648;1.214;2023-04-21T05:59:00;100911.03;;;6.90;nan
66381;BME280;53177;52.648;1.214;2023-04-21T06:01:26;100918.91;;;6.92;nan
66381;BME280;53177;52.648;1.214;2023-04-21T06:03:51;100923.25;;;6.99;nan
66381;BME280;53177;52.648;1.214;2023-04-21T06:06:16;100928.50;;;6.99;nan
66381;BME280;53177;52.648;1.214;2023-04-21T06:08:42;100937.28;;;7.01;nan
66381;BME280;53177;52.648;1.214;2023-04-21T06:11:07;100942.50;;;7.04;nan
66381;BME280;53177;52.648;1.214;2023-04-21T06:13:33;100939.88;;;7.08;nan
66381;BME280;53177;52.648;1.214;2023-04-21T06:15:58;100931.97;;;7.08;nan
66381;BME280;53177;52.648;1.214;2023-04-21T06:18:26;100925.00;;;7.06;nan
66381;BME280;53177;52.648;1.214;2023-04-21T06:20:52;100929.31;;;7.10;nan
66381;BME280;53177;52.648;1.214;2023-04-21T06:23:18;100933.69;;;7.14;nan
66381;BME280;53177;52.648;1.214;2023-04-21T06:25:43;100938.06;;;7.15;nan
66381;BME280;53177;52.648;1.214;2023-04-21T06:28:09;100941.53;;;7.21;nan
66381;BME280;53177;52.648;1.214;2023-04-21T06:30:34;100924.88;;;7.21;nan
66381;BME280;53177;52.648;1.214;2023-04-21T06:33:00;100929.25;;;7.25;nan
66381;BME280;53177;52.648;1.214;2023-04-21T06:35:25;100928.34;;;7.24;nan
66381;BME280;53177;52.648;1.214;2023-04-21T06:37:51;100928.34;;;7.24;nan
66381;BME280;53177;52.648;1.214;2023-04-21T06:40:17;100923.97;;;7.31;nan
66381;BME280;53177;52.648;1.214;2023-04-21T06:42:43;100912.56;;;7.30;nan
66381;BME280;53177;52.648;1.214;2023-04-21T06:45:08;100914.31;;;7.30;nan
66381;BME280;53177;52.648;1.214;2023-04-21T06:47:34;100922.19;;;7.28;nan
66381;BME280;53177;52.648;1.214;2023-04-21T06:49:59;100914.25;;;7.36;nan
66381;BME280;53177;52.648;1.214;2023-04-21T06:52:25;100924.78;;;7.38;nan
66381;BME280;53177;52.648;1.214;2023-04-21T06:54:50;100930.06;;;7.38;nan
66381;BME280;53177;52.648;1.214;2023-04-21T06:57:15;100921.28;;;7.37;nan
66381;BME280;53177;52.648;1.214;2023-04-21T06:59:42;100928.28;;;7.38;nan
66381;BME280;53177;52.648;1.214;2023-04-21T07:02:07;100922.09;;;7.44;nan
66381;BME280;53177;52.648;1.214;2023-04-21T07:04:33;100924.72;;;7.47;nan
66381;BME280;53177;52.648;1.214;2023-04-21T07:06:58;100915.97;;;7.46;nan
66381;BME280;53177;52.648;1.214;2023-04-21T07:09:24;100914.13;;;7.54;nan
66381;BME280;53177;52.648;1.214;2023-04-21T07:11:49;100908.88;;;7.57;nan
66381;BME280;53177;52.648;1.214;2023-04-21T07:14:14;100910.59;;;7.58;nan
66381;BME280;53177;52.648;1.214;2023-04-21T07:16:40;100905.31;;;7.61;nan
66381;BME280;53177;52.648;1.214;2023-04-21T07:19:05;100899.19;;;7.59;nan
66381;BME280;53177;52.648;1.214;2023-04-21T07:21:31;100903.56;;;7.62;nan
66381;BME280;53177;52.648;1.214;2023-04-21T07:24:00;100909.66;;;7.65;nan
66381;BME280;53177;52.648;1.214;2023-04-21T07:26:26;100911.31;;;7.77;nan
66381;BME280;53177;52.648;1.214;2023-04-21T07:28:51;100911.31;;;7.83;nan
66381;BME280;53177;52.648;1.214;2023-04-21T07:31:17;100920.03;;;7.87;nan
66381;BME280;53177;52.648;1.214;2023-04-21T07:33:42;100913.91;;;7.84;nan
66381;BME280;53177;52.648;1.214;2023-04-21T07:36:08;100915.59;;;7.92;nan
66381;BME280;53177;52.648;1.214;2023-04-21T07:38:33;100910.31;;;7.92;nan
66381;BME280;53177;52.648;1.214;2023-04-21T07:40:59;100913.94;;;7.81;nan
66381;BME280;53177;52.648;1.214;2023-04-21T07:43:24;100918.31;;;7.81;nan
66381;BME280;53177;52.648;1.214;2023-04-21T07:45:51;100923.56;;;7.84;nan
66381;BME280;53177;52.648;1.214;2023-04-21T07:48:16;100911.34;;;7.75;nan
66381;BME280;53177;52.648;1.214;2023-04-21T07:50:42;100919.25;;;7.74;nan
66381;BME280;53177;52.648;1.214;2023-04-21T07:53:07;100915.78;;;7.70;nan
66381;BME280;53177;52.648;1.214;2023-04-21T07:55:33;100922.81;;;7.65;nan
66381;BME280;53177;52.648;1.214;2023-04-21T07:57:58;100919.34;;;7.65;nan
66381;BME280;53177;52.648;1.214;2023-04-21T08:00:24;100930.78;;;7.58;nan
66381;BME280;53177;52.648;1.214;2023-04-21T08:02:52;100932.53;;;7.60;nan
66381;BME280;53177;52.648;1.214;2023-04-21T08:05:20;100932.56;;;7.54;nan
66381;BME280;53177;52.648;1.214;2023-04-21T08:07:46;100940.44;;;7.56;nan
66381;BME280;53177;52.648;1.214;2023-04-21T08:10:12;100942.19;;;7.60;nan
66381;BME280;53177;52.648;1.214;2023-04-21T08:12:38;100945.72;;;7.57;nan
66381;BME280;53177;52.648;1.214;2023-04-21T08:15:05;100943.06;;;7.60;nan
66381;BME280;53177;52.648;1.214;2023-04-21T08:17:32;100944.78;;;7.61;nan
66381;BME280;53177;52.648;1.214;2023-04-21T08:19:59;100946.56;;;7.61;nan
66381;BME280;53177;52.648;1.214;2023-04-21T08:22:25;100941.22;;;7.71;nan
66381;BME280;53177;52.648;1.214;2023-04-21T08:24:50;100942.94;;;7.74;nan
66381;BME280;53177;52.648;1.214;2023-04-21T08:27:16;100931.47;;;7.82;nan
66381;BME280;53177;52.648;1.214;2023-04-21T08:29:41;100934.97;;;7.86;nan
66381;BME280;53177;52.648;1.214;2023-04-21T08:32:06;100941.03;;;7.91;nan
66381;BME280;53177;52.648;1.214;2023-04-21T08:34:33;100944.56;;;7.92;nan
66381;BME280;53177;52.648;1.214;2023-04-21T08:36:58;100948.13;;;7.86;nan
66381;BME280;53177;52.648;1.214;2023-04-21T08:39:23;100954.22;;;7.93;nan
66381;BME280;53177;52.648;1.214;2023-04-21T08:41:50;100939.31;;;7.87;nan
66381;BME280;53177;52.648;1.214;2023-04-21T08:44:16;100943.59;;;8.05;nan
66381;BME280;53177;52.648;1.214;2023-04-21T08:46:44;100946.13;;;8.14;nan
66381;BME280;53177;52.648;1.214;2023-04-21T08:49:11;100955.69;;;8.21;nan
66381;BME280;53177;52.648;1.214;2023-04-21T08:51:37;100954.75;;;8.34;nan
66381;BME280;53177;52.648;1.214;2023-04-21T08:54:02;100955.44;;;8.51;nan
66381;BME280;53177;52.648;1.214;2023-04-21T08:56:28;100949.31;;;8.49;nan
66381;BME280;53177;52.648;1.214;2023-04-21T08:58:53;100947.47;;;8.57;nan
66381;BME280;53177;52.648;1.214;2023-04-21T09:01:18;100955.31;;;8.62;nan
66381;BME280;53177;52.648;1.214;2023-04-21T09:03:44;100953.59;;;8.61;nan
66381;BME280;53177;52.648;1.214;2023-04-21T09:06:10;100952.44;;;8.85;nan
66381;BME280;53177;52.648;1.214;2023-04-21T09:08:41;100958.44;;;8.96;nan
66381;BME280;53177;52.648;1.214;2023-04-21T09:11:07;100961.09;;;8.97;nan
66381;BME280;53177;52.648;1.214;2023-04-21T09:13:37;100951.38;;;8.99;nan
66381;BME280;53177;52.648;1.214;2023-04-21T09:16:04;100952.16;;;9.07;nan
66381;BME280;53177;52.648;1.214;2023-04-21T09:18:38;100956.34;;;9.22;nan
66381;BME280;53177;52.648;1.214;2023-04-21T09:21:10;100953.72;;;9.23;nan
66381;BME280;53177;52.648;1.214;2023-04-21T09:26:11;100953.00;;;9.70;nan
66381;BME280;53177;52.648;1.214;2023-04-21T09:28:42;100953.66;;;9.86;nan
66381;BME280;53177;52.648;1.214;2023-04-21T09:33:48;100943.41;;;10.20;nan
66381;BME280;53177;52.648;1.214;2023-04-21T09:36:24;100945.06;;;10.27;nan
66381;BME280;53177;52.648;1.214;2023-04-21T09:41:18;100949.94;;;9.96;nan
66381;BME280;53177;52.648;1.214;2023-04-21T09:43:44;100949.44;;;9.73;nan
66381;BME280;53177;52.648;1.214;2023-04-21T09:46:11;100952.25;;;9.62;nan
66381;BME280;53177;52.648;1.214;2023-04-21T09:48:40;100958.19;;;9.76;nan
66381;BME280;53177;52.648;1.214;2023-04-21T09:51:07;100954.78;;;9.71;nan
66381;BME280;53177;52.648;1.214;2023-04-21T09:53:38;100966.03;;;9.83;nan
66381;BME280;53177;52.648;1.214;2023-04-21T09:56:05;100958.00;;;9.90;nan
66381;BME280;53177;52.648;1.214;2023-04-21T09:58:50;100963.28;;;9.87;nan
66381;BME280;53177;52.648;1.214;2023-04-21T10:01:16;100957.78;;;10.02;nan
66381;BME280;53177;52.648;1.214;2023-04-21T10:03:43;100956.88;;;10.03;nan
66381;BME280;53177;52.648;1.214;2023-04-21T10:06:10;100961.22;;;10.06;nan
66381;BME280;53177;52.648;1.214;2023-04-21T10:08:36;100952.06;;;10.28;nan
66381;BME280;53177;52.648;1.214;2023-04-21T10:11:02;100958.50;;;10.12;nan
66381;BME280;53177;52.648;1.214;2023-04-21T10:13:29;100959.59;;;9.99;nan
66381;BME280;53177;52.648;1.214;2023-04-21T10:16:02;100963.78;;;10.12;nan
66381;BME280;53177;52.648;1.214;2023-04-21T10:18:28;100963.91;;;10.56;nan
66381;BME280;53177;52.648;1.214;2023-04-21T10:21:07;100960.78;;;10.79;nan
66381;BME280;53177;52.648;1.214;2023-04-21T10:23:42;100966.44;;;11.05;nan
66381;BME280;53177;52.648;1.214;2023-04-21T10:26:09;100956.88;;;11.00;nan
66381;BME280;53177;52.648;1.214;2023-04-21T10:28:47;100963.28;;;10.88;nan
66381;BME280;53177;52.648;1.214;2023-04-21T10:31:20;100953.34;;;10.99;nan
66381;BME280;53177;52.648;1.214;2023-04-21T10:39:10;100943.69;;;10.97;nan
66381;BME280;53177;52.648;1.214;2023-04-21T10:41:42;100942.78;;;10.98;nan
66381;BME280;53177;52.648;1.214;2023-04-21T10:44:12;100939.63;;;10.81;nan
66381;BME280;53177;52.648;1.214;2023-04-21T10:46:44;100942.47;;;10.70;nan
66381;BME280;53177;52.648;1.214;2023-04-21T10:49:30;100947.47;;;10.84;nan
66381;BME280;53177;52.648;1.214;2023-04-21T10:54:23;100946.56;;;10.86;nan
66381;BME280;53177;52.648;1.214;2023-04-21T10:56:57;100944.28;;;11.11;nan
66381;BME280;53177;52.648;1.214;2023-04-21T10:59:25;100944.19;;;11.15;nan
66381;BME280;53177;52.648;1.214;2023-04-21T11:01:51;100940.69;;;11.13;nan
66381;BME280;53177;52.648;1.214;2023-04-21T11:04:20;100940.25;;;11.33;nan
66381;BME280;53177;52.648;1.214;2023-04-21T11:07:05;100937.25;;;11.87;nan
66381;BME280;53177;52.648;1.214;2023-04-21T11:09:32;100936.63;;;11.77;nan
66381;BME280;53177;52.648;1.214;2023-04-21T11:11:58;100937.09;;;11.56;nan
66381;BME280;53177;52.648;1.214;2023-04-21T11:14:24;100935.06;;;11.29;nan
66381;BME280;53177;52.648;1.214;2023-04-21T11:16:49;100936.09;;;11.21;nan
66381;BME280;53177;52.648;1.214;2023-04-21T11:19:15;100931.28;;;11.00;nan
66381;BME280;53177;52.648;1.214;2023-04-21T11:21:40;100929.47;;;11.02;nan
66381;BME280;53177;52.648;1.214;2023-04-21T11:24:07;100923.06;;;11.12;nan
66381;BME280;53177;52.648;1.214;2023-04-21T11:26:35;100927.34;;;11.18;nan
66381;BME280;53177;52.648;1.214;2023-04-21T11:29:03;100923.84;;;11.16;nan
66381;BME280;53177;52.648;1.214;2023-04-21T11:31:34;100922.19;;;11.50;nan
66381;BME280;53177;52.648;1.214;2023-04-21T11:34:01;100919.03;;;11.75;nan
66381;BME280;53177;52.648;1.214;2023-04-21T11:36:34;100920.34;;;11.92;nan
66381;BME280;53177;52.648;1.214;2023-04-21T11:39:13;100922.31;;;11.84;nan
66381;BME280;53177;52.648;1.214;2023-04-21T11:41:44;100911.97;;;11.74;nan
66381;BME280;53177;52.648;1.214;2023-04-21T11:44:10;100904.53;;;11.51;nan
66381;BME280;53177;52.648;1.214;2023-04-21T11:46:37;100925.09;;;11.40;nan
66381;BME280;53177;52.648;1.214;2023-04-21T11:49:14;100916.34;;;11.36;nan
66381;BME280;53177;52.648;1.214;2023-04-21T11:51:43;100921.72;;;11.33;nan
66381;BME280;53177;52.648;1.214;2023-04-21T11:54:17;100914.41;;;11.44;nan
66381;BME280;53177;52.648;1.214;2023-04-21T11:56:46;100913.91;;;11.65;nan
66381;BME280;53177;52.648;1.214;2023-04-21T11:59:13;100913.28;;;11.91;nan
66381;BME280;53177;52.648;1.214;2023-04-21T12:01:46;100915.56;;;11.69;nan
66381;BME280;53177;52.648;1.214;2023-04-21T12:04:14;100911.31;;;12.01;nan
66381;BME280;53177;52.648;1.214;2023-04-21T12:06:40;100912.16;;;12.01;nan
66381;BME280;53177;52.648;1.214;2023-04-21T12:09:06;100902.94;;;11.82;nan
66381;BME280;53177;52.648;1.214;2023-04-21T12:11:31;100910.94;;;11.79;nan
66381;BME280;53177;52.648;1.214;2023-04-21T12:13:57;100912.03;;;11.70;nan
66381;BME280;53177;52.648;1.214;2023-04-21T12:16:25;100907.38;;;11.80;nan
66381;BME280;53177;52.648;1.214;2023-04-21T12:18:55;100915.50;;;11.74;nan
66381;BME280;53177;52.648;1.214;2023-04-21T12:21:21;100910.22;;;11.73;nan
66381;BME280;53177;52.648;1.214;2023-04-21T12:23:46;100905.41;;;11.90;nan
66381;BME280;53177;52.648;1.214;2023-04-21T12:26:11;100912.69;;;11.80;nan
66381;BME280;53177;52.648;1.214;2023-04-21T12:28:37;100916.81;;;11.92;nan
66381;BME280;53177;52.648;1.214;2023-04-21T12:31:04;100901.22;;;12.15;nan
66381;BME280;53177;52.648;1.214;2023-04-21T12:33:29;100898.00;;;12.35;nan
66381;BME280;53177;52.648;1.214;2023-04-21T12:35:55;100897.13;;;12.34;nan
66381;BME280;53177;52.648;1.214;2023-04-21T12:38:20;100900.34;;;12.47;nan
66381;BME280;53177;52.648;1.214;2023-04-21T12:40:47;100894.69;;;12.59;nan
66381;BME280;53177;52.648;1.214;2023-04-21T12:43:12;100904.88;;;12.42;nan
66381;BME280;53177;52.648;1.214;2023-04-21T12:45:38;100901.31;;;12.10;nan
66381;BME280;53177;52.648;1.214;2023-04-21T12:48:04;100894.44;;;12.03;nan
66381;BME280;53177;52.648;1.214;2023-04-21T12:50:29;100894.38;;;12.05;nan
66381;BME280;53177;52.648;1.214;2023-04-21T12:52:55;100891.88;;;12.33;nan
66381;BME280;53177;52.648;1.214;2023-04-21T12:55:21;100894.63;;;12.30;nan
66381;BME280;53177;52.648;1.214;2023-04-21T12:57:46;100891.63;;;12.42;nan
66381;BME280;53177;52.648;1.214;2023-04-21T13:00:13;100896.41;;;12.29;nan
66381;BME280;53177;52.648;1.214;2023-04-21T13:02:40;100885.44;;;12.74;nan
66381;BME280;53177;52.648;1.214;2023-04-21T13:05:05;100881.78;;;13.07;nan
66381;BME280;53177;52.648;1.214;2023-04-21T13:07:35;100889.53;;;12.84;nan
66381;BME280;53177;52.648;1.214;2023-04-21T13:10:02;100887.78;;;12.84;nan
66381;BME280;53177;52.648;1.214;2023-04-21T13:12:29;100899.44;;;13.09;nan
66381;BME280;53177;52.648;1.214;2023-04-21T13:14:54;100894.53;;;13.25;nan
66381;BME280;53177;52.648;1.214;2023-04-21T13:17:19;100881.44;;;13.47;nan
66381;BME280;53177;52.648;1.214;2023-04-21T13:19:45;100887.75;;;13.43;nan
66381;BME280;53177;52.648;1.214;2023-04-21T13:22:10;100875.41;;;13.14;nan
66381;BME280;53177;52.648;1.214;2023-04-21T13:24:35;100877.56;;;13.57;nan
66381;BME280;53177;52.648;1.214;2023-04-21T13:27:01;100881.16;;;13.82;nan
66381;BME280;53177;52.648;1.214;2023-04-21T13:29:27;100879.97;;;13.91;nan
66381;BME280;53177;52.648;1.214;2023-04-21T13:31:59;100873.91;;;14.12;nan